Mill Village, PA (16427)

7:59 AM EDT on May 27, 2015 (GMT -0400)
2 miles southeast of Mill Village | | Change Station
CLOSE
Current Station
Personal Weather Station
Location: Union City, PA
Elevation: 1572 ft
Nearby Weather Stations

Elev 1572 ft 41.86 °N, 79.94 °W | Updated 6 minutes ago

Overcast
Overcast
65.9 °F
Feels Like 65.9 °F
N
9.0
Wind Variable Wind from SSW
Gusts 13.0 mph

Today
High -- | Low -- °F
--% Chance of Precip.
Yesterday
High -- | Low -- °F
Precip. -- in
5:50 AM 8:44 PM
Waxing Gibbous, 66% visible
Pressure 30.03 in
Visibility 10.0 miles
Clouds Few 1900 ft
Scattered Clouds 6000 ft
Dew Point 63 °F
Humidity 91%
Rainfall 0.00 in
Snow Depth Not available.
UV 1 out of 12
Pollen 7.50 out of 12
Air Quality Not available.
Flu Activity Sporadic
METAR KERI 271151Z 20010G16KT 10SM FEW019 SCT060 21/17 A3004 RMK AO2 SLP168 70007 T02110167 10217 20206 53017

More Conditions Fewer Conditions

Pressure 30.03 in
Visibility 10.0 miles
Clouds Few 1900 ft
Scattered Clouds 6000 ft
Dew Point 63 °F
Humidity 91%
Rainfall 0.00 in
Snow Depth Not available.
UV 1 out of 12
Pollen 7.50 out of 12
Air Quality Not available.
Flu Activity Sporadic
METAR KERI 271151Z 20010G16KT 10SM FEW019 SCT060 21/17 A3004 RMK AO2 SLP168 70007 T02110167 10217 20206 53017

More Conditions Fewer Conditions

10-Day Weather Forecast

Almanac

Astronomy

May. 27, 2015 Rise Set
Actual Time
Civil Twilight
Nautical Twilight
Astronomical Twilight
Moon
Length of Visible Light
Length of Day
Tomorrow will be .
, % of the Moon is Illuminated

Today's Extremes

State Highs State Lows

Community

WunderPhotos

Upload Photos

1,824,641 photos uploaded!

WunderBlogs® & News

Nearby

Air Quality

  Air Quality AQ Index Pollutant
Not available.

Snow Depth

Station Depth Elevation

Earthquake Activity

City Distance Mag. Time & Date
Minimum magnitude displayed is 2.5.

Coastal Water Temperatures

Place Temperature

Stations

Nearby Weather Stations

Station Location Temp. Windchill Dew Point Humidity Wind Precip. Elev Updated Type